sensor_id;sensor_type;location;lat;lon;timestamp;pressure;altitude;pressure_sealevel;temperature;humidity
74346;BME280;62776;50.518;6.732;2023-04-15T00:00:43;95645.91;;;5.72;78.07
74346;BME280;62776;50.518;6.732;2023-04-15T00:07:06;95651.91;;;5.76;80.49
74346;BME280;62776;50.518;6.732;2023-04-15T00:09:53;95654.50;;;5.76;79.21
74346;BME280;62776;50.518;6.732;2023-04-15T00:12:42;95643.28;;;5.78;80.80
74346;BME280;62776;50.518;6.732;2023-04-15T00:15:29;95652.75;;;5.78;82.00
74346;BME280;62776;50.518;6.732;2023-04-15T00:18:16;95651.03;;;5.75;83.55
74346;BME280;62776;50.518;6.732;2023-04-15T00:21:09;95655.34;;;5.72;84.33
74346;BME280;62776;50.518;6.732;2023-04-15T00:24:01;95646.78;;;5.70;84.69
74346;BME280;62776;50.518;6.732;2023-04-15T00:27:10;95657.97;;;5.67;85.29
74346;BME280;62776;50.518;6.732;2023-04-15T00:30:06;95646.88;;;5.55;83.86
74346;BME280;62776;50.518;6.732;2023-04-15T00:40:18;95648.56;;;5.62;85.04
74346;BME280;62776;50.518;6.732;2023-04-15T00:43:05;95645.13;;;5.63;85.73
74346;BME280;62776;50.518;6.732;2023-04-15T00:45:54;95643.44;;;5.56;86.51
74346;BME280;62776;50.518;6.732;2023-04-15T00:48:46;95638.28;;;5.56;86.28
74346;BME280;62776;50.518;6.732;2023-04-15T00:51:35;95638.31;;;5.50;85.06
74346;BME280;62776;50.518;6.732;2023-04-15T00:56:40;95633.13;;;5.53;85.19
74346;BME280;62776;50.518;6.732;2023-04-15T00:59:36;95633.22;;;5.41;85.01
74346;BME280;62776;50.518;6.732;2023-04-15T01:02:26;95628.03;;;5.45;85.81
74346;BME280;62776;50.518;6.732;2023-04-15T01:05:16;95634.03;;;5.44;85.27
74346;BME280;62776;50.518;6.732;2023-04-15T01:08:12;95633.22;;;5.44;85.10
74346;BME280;62776;50.518;6.732;2023-04-15T01:13:18;95630.59;;;5.48;85.19
74346;BME280;62776;50.518;6.732;2023-04-15T01:16:05;95629.72;;;5.48;84.23
74346;BME280;62776;50.518;6.732;2023-04-15T01:18:54;95633.16;;;5.47;83.80
74346;BME280;62776;50.518;6.732;2023-04-15T01:21:41;95626.31;;;5.46;82.57
74346;BME280;62776;50.518;6.732;2023-04-15T01:24:37;95617.75;;;5.39;82.90
74346;BME280;62776;50.518;6.732;2023-04-15T01:27:24;95621.16;;;5.46;84.57
74346;BME280;62776;50.518;6.732;2023-04-15T01:30:11;95618.59;;;5.43;85.85
74346;BME280;62776;50.518;6.732;2023-04-15T01:33:00;95610.88;;;5.40;85.29
74346;BME280;62776;50.518;6.732;2023-04-15T01:35:51;95621.19;;;5.36;85.62
74346;BME280;62776;50.518;6.732;2023-04-15T01:41:10;95618.63;;;5.33;85.48
74346;BME280;62776;50.518;6.732;2023-04-15T01:43:56;95612.63;;;5.34;86.90
74346;BME280;62776;50.518;6.732;2023-04-15T01:46:42;95610.09;;;5.28;87.79
74346;BME280;62776;50.518;6.732;2023-04-15T01:49:29;95615.25;;;5.25;87.97
74346;BME280;62776;50.518;6.732;2023-04-15T01:52:17;95613.53;;;5.23;87.58
74346;BME280;62776;50.518;6.732;2023-04-15T01:55:09;95615.28;;;5.18;87.75
74346;BME280;62776;50.518;6.732;2023-04-15T01:57:34;95602.38;;;5.24;87.60
74346;BME280;62776;50.518;6.732;2023-04-15T02:00:26;95610.13;;;5.24;88.32
74346;BME280;62776;50.518;6.732;2023-04-15T02:03:18;95621.31;;;5.15;87.43
74346;BME280;62776;50.518;6.732;2023-04-15T02:08:45;95618.72;;;5.20;88.40
74346;BME280;62776;50.518;6.732;2023-04-15T02:11:47;95616.22;;;5.02;88.25
74346;BME280;62776;50.518;6.732;2023-04-15T02:14:34;95614.44;;;5.11;89.69
74346;BME280;62776;50.518;6.732;2023-04-15T02:17:21;95624.75;;;5.08;89.89
74346;BME280;62776;50.518;6.732;2023-04-15T02:20:09;95618.81;;;4.99;90.03
74346;BME280;62776;50.518;6.732;2023-04-15T02:23:04;95623.13;;;4.92;90.99
74346;BME280;62776;50.518;6.732;2023-04-15T02:30:51;95627.47;;;4.83;91.32
74346;BME280;62776;50.518;6.732;2023-04-15T02:33:39;95631.75;;;4.76;92.30
74346;BME280;62776;50.518;6.732;2023-04-15T02:36:32;95631.78;;;4.65;92.38
74346;BME280;62776;50.518;6.732;2023-04-15T02:41:35;95629.19;;;4.74;92.89
74346;BME280;62776;50.518;6.732;2023-04-15T02:44:24;95630.03;;;4.76;92.30
74346;BME280;62776;50.518;6.732;2023-04-15T02:47:11;95633.47;;;4.77;92.10
74346;BME280;62776;50.518;6.732;2023-04-15T02:50:13;95630.91;;;4.74;90.58
74346;BME280;62776;50.518;6.732;2023-04-15T02:53:01;95633.47;;;4.83;91.59
74346;BME280;62776;50.518;6.732;2023-04-15T02:55:30;95636.00;;;4.88;91.82
74346;BME280;62776;50.518;6.732;2023-04-15T02:58:16;95633.47;;;4.86;91.98
74346;BME280;62776;50.518;6.732;2023-04-15T03:01:02;95642.03;;;4.84;91.91
74346;BME280;62776;50.518;6.732;2023-04-15T03:03:49;95640.31;;;4.78;92.42
74346;BME280;62776;50.518;6.732;2023-04-15T03:06:35;95644.66;;;4.74;93.58
74346;BME280;62776;50.518;6.732;2023-04-15T03:11:58;95646.34;;;4.71;94.74
74346;BME280;62776;50.518;6.732;2023-04-15T03:14:47;95641.22;;;4.65;95.07
74346;BME280;62776;50.518;6.732;2023-04-15T03:17:33;95638.63;;;4.68;95.66
74346;BME280;62776;50.518;6.732;2023-04-15T03:20:19;95648.06;;;4.64;96.46
74346;BME280;62776;50.518;6.732;2023-04-15T03:23:09;95647.22;;;4.65;96.53
74346;BME280;62776;50.518;6.732;2023-04-15T03:25:55;95644.69;;;4.64;96.62
74346;BME280;62776;50.518;6.732;2023-04-15T03:28:43;95641.22;;;4.59;96.49
74346;BME280;62776;50.518;6.732;2023-04-15T03:31:29;95651.53;;;4.59;95.87
74346;BME280;62776;50.518;6.732;2023-04-15T03:34:16;95643.78;;;4.65;96.06
74346;BME280;62776;50.518;6.732;2023-04-15T03:37:18;95642.94;;;4.57;96.50
74346;BME280;62776;50.518;6.732;2023-04-15T03:40:05;95642.09;;;4.62;96.87
74346;BME280;62776;50.518;6.732;2023-04-15T03:42:52;95650.66;;;4.69;97.02
74346;BME280;62776;50.518;6.732;2023-04-15T03:45:39;95654.09;;;4.68;96.47
74346;BME280;62776;50.518;6.732;2023-04-15T03:48:30;95649.78;;;4.67;96.80
74346;BME280;62776;50.518;6.732;2023-04-15T03:51:16;95652.41;;;4.64;97.67
74346;BME280;62776;50.518;6.732;2023-04-15T03:54:04;95655.81;;;4.60;97.81
74346;BME280;62776;50.518;6.732;2023-04-15T03:56:50;95649.81;;;4.59;98.46
74346;BME280;62776;50.518;6.732;2023-04-15T03:59:41;95658.38;;;4.60;98.99
74346;BME280;62776;50.518;6.732;2023-04-15T04:02:27;95650.66;;;4.60;99.03
74346;BME280;62776;50.518;6.732;2023-04-15T04:05:16;95664.41;;;4.57;98.75
74346;BME280;62776;50.518;6.732;2023-04-15T04:08:04;95662.69;;;4.61;98.73
74346;BME280;62776;50.518;6.732;2023-04-15T04:10:51;95664.41;;;4.63;98.32
74346;BME280;62776;50.518;6.732;2023-04-15T04:13:41;95669.53;;;4.62;98.28
74346;BME280;62776;50.518;6.732;2023-04-15T04:16:29;95670.41;;;4.59;98.90
74346;BME280;62776;50.518;6.732;2023-04-15T04:19:18;95672.13;;;4.57;99.25
74346;BME280;62776;50.518;6.732;2023-04-15T04:22:05;95676.41;;;4.57;99.75
74346;BME280;62776;50.518;6.732;2023-04-15T04:24:51;95674.72;;;4.56;100.00
74346;BME280;62776;50.518;6.732;2023-04-15T04:27:47;95674.72;;;4.56;100.00
74346;BME280;62776;50.518;6.732;2023-04-15T04:30:35;95674.69;;;4.51;100.00
74346;BME280;62776;50.518;6.732;2023-04-15T04:33:25;95674.72;;;4.56;99.72
74346;BME280;62776;50.518;6.732;2023-04-15T04:36:11;95670.38;;;4.67;98.23
74346;BME280;62776;50.518;6.732;2023-04-15T04:39:00;95672.94;;;4.70;97.96
74346;BME280;62776;50.518;6.732;2023-04-15T04:41:47;95679.81;;;4.74;97.84
74346;BME280;62776;50.518;6.732;2023-04-15T04:44:33;95679.78;;;4.82;95.98
74346;BME280;62776;50.518;6.732;2023-04-15T04:47:31;95688.34;;;4.94;94.96
74346;BME280;62776;50.518;6.732;2023-04-15T04:50:18;95686.63;;;4.96;95.87
74346;BME280;62776;50.518;6.732;2023-04-15T04:53:05;95688.31;;;4.97;95.58
74346;BME280;62776;50.518;6.732;2023-04-15T04:55:57;95689.19;;;4.98;95.02
74346;BME280;62776;50.518;6.732;2023-04-15T04:58:43;95688.31;;;5.06;94.49
74346;BME280;62776;50.518;6.732;2023-04-15T05:01:38;95684.88;;;5.04;93.83
74346;BME280;62776;50.518;6.732;2023-04-15T05:04:37;95685.72;;;5.15;94.33
74346;BME280;62776;50.518;6.732;2023-04-15T05:07:23;95688.38;;;4.76;95.69
74346;BME280;62776;50.518;6.732;2023-04-15T05:10:10;95686.56;;;5.11;95.87
74346;BME280;62776;50.518;6.732;2023-04-15T05:13:00;95686.56;;;5.19;96.58
74346;BME280;62776;50.518;6.732;2023-04-15T05:15:46;95683.97;;;5.23;96.97
74346;BME280;62776;50.518;6.732;2023-04-15T05:18:38;95689.97;;;5.27;97.47
74346;BME280;62776;50.518;6.732;2023-04-15T05:21:27;95683.03;;;5.36;98.69
74346;BME280;62776;50.518;6.732;2023-04-15T05:24:15;95689.00;;;5.45;98.72
74346;BME280;62776;50.518;6.732;2023-04-15T05:27:16;95690.75;;;5.43;98.12
74346;BME280;62776;50.518;6.732;2023-04-15T05:30:05;95695.84;;;5.56;97.46
74346;BME280;62776;50.518;6.732;2023-04-15T05:33:03;95694.09;;;5.66;96.88
74346;BME280;62776;50.518;6.732;2023-04-15T05:35:49;95690.56;;;5.77;97.12
74346;BME280;62776;50.518;6.732;2023-04-15T05:38:38;95698.31;;;5.85;98.21
74346;BME280;62776;50.518;6.732;2023-04-15T05:41:32;95699.97;;;5.83;97.10
74346;BME280;62776;50.518;6.732;2023-04-15T05:44:19;95705.94;;;6.00;98.43
74346;BME280;62776;50.518;6.732;2023-04-15T05:47:06;95708.47;;;6.09;99.83
74346;BME280;62776;50.518;6.732;2023-04-15T05:49:53;95715.28;;;6.18;98.74
74346;BME280;62776;50.518;6.732;2023-04-15T05:52:40;95710.03;;;6.27;98.74
74346;BME280;62776;50.518;6.732;2023-04-15T05:55:27;95716.88;;;6.37;98.75
74346;BME280;62776;50.518;6.732;2023-04-15T05:58:13;95716.78;;;6.47;97.92
74346;BME280;62776;50.518;6.732;2023-04-15T06:00:59;95723.53;;;6.61;96.67
74346;BME280;62776;50.518;6.732;2023-04-15T06:03:57;95714.94;;;6.62;95.13
74346;BME280;62776;50.518;6.732;2023-04-15T06:06:43;95722.50;;;6.80;91.69
74346;BME280;62776;50.518;6.732;2023-04-15T06:09:36;95719.72;;;7.01;90.82
74346;BME280;62776;50.518;6.732;2023-04-15T06:12:22;95721.31;;;7.14;93.02
74346;BME280;62776;50.518;6.732;2023-04-15T06:15:09;95722.03;;;7.27;95.21
74346;BME280;62776;50.518;6.732;2023-04-15T06:18:02;95723.59;;;7.40;94.87
74346;BME280;62776;50.518;6.732;2023-04-15T06:20:50;95723.50;;;7.47;94.38
74346;BME280;62776;50.518;6.732;2023-04-15T06:23:37;95724.19;;;7.61;95.92
74346;BME280;62776;50.518;6.732;2023-04-15T06:26:26;95726.66;;;7.72;97.73
74346;BME280;62776;50.518;6.732;2023-04-15T06:29:15;95726.50;;;7.84;99.57
74346;BME280;62776;50.518;6.732;2023-04-15T06:32:02;95728.09;;;7.94;100.00
74346;BME280;62776;50.518;6.732;2023-04-15T06:34:48;95732.31;;;8.01;100.00
74346;BME280;62776;50.518;6.732;2023-04-15T06:37:37;95733.97;;;8.05;99.15
74346;BME280;62776;50.518;6.732;2023-04-15T06:40:23;95739.94;;;8.12;98.58
74346;BME280;62776;50.518;6.732;2023-04-15T06:43:12;95740.75;;;8.14;98.43
74346;BME280;62776;50.518;6.732;2023-04-15T06:45:58;95738.16;;;8.14;98.44
74346;BME280;62776;50.518;6.732;2023-04-15T06:48:48;95741.72;;;8.07;95.51
74346;BME280;62776;50.518;6.732;2023-04-15T06:51:37;95751.22;;;8.06;91.98
74346;BME280;62776;50.518;6.732;2023-04-15T06:54:24;95763.50;;;7.91;87.83
74346;BME280;62776;50.518;6.732;2023-04-15T06:57:11;95763.75;;;7.71;85.09
74346;BME280;62776;50.518;6.732;2023-04-15T07:00:03;95772.50;;;7.59;82.40
74346;BME280;62776;50.518;6.732;2023-04-15T07:02:51;95776.84;;;7.57;81.32
74346;BME280;62776;50.518;6.732;2023-04-15T07:05:42;95781.25;;;7.49;81.29
74346;BME280;62776;50.518;6.732;2023-04-15T07:08:32;95792.53;;;7.41;80.88
74346;BME280;62776;50.518;6.732;2023-04-15T07:11:20;95795.97;;;7.44;78.51
74346;BME280;62776;50.518;6.732;2023-04-15T07:14:06;95796.69;;;7.54;78.76
74346;BME280;62776;50.518;6.732;2023-04-15T07:16:52;95801.72;;;7.67;79.06
74346;BME280;62776;50.518;6.732;2023-04-15T07:19:38;95805.00;;;7.82;78.22
74346;BME280;62776;50.518;6.732;2023-04-15T07:22:34;95803.13;;;7.96;78.62
74346;BME280;62776;50.518;6.732;2023-04-15T07:25:20;95811.50;;;8.14;79.75
74346;BME280;62776;50.518;6.732;2023-04-15T07:28:10;95810.50;;;8.24;79.93
74346;BME280;62776;50.518;6.732;2023-04-15T07:31:06;95812.88;;;8.41;75.86
74346;BME280;62776;50.518;6.732;2023-04-15T07:33:52;95809.19;;;8.57;78.26
74346;BME280;62776;50.518;6.732;2023-04-15T07:36:41;95812.53;;;8.65;73.62
74346;BME280;62776;50.518;6.732;2023-04-15T07:39:31;95821.00;;;8.76;73.12
74346;BME280;62776;50.518;6.732;2023-04-15T07:42:21;95829.72;;;8.72;71.67
74346;BME280;62776;50.518;6.732;2023-04-15T07:45:07;95824.31;;;8.84;72.96
74346;BME280;62776;50.518;6.732;2023-04-15T07:47:56;95839.78;;;8.90;70.00
74346;BME280;62776;50.518;6.732;2023-04-15T07:50:42;95844.88;;;8.97;70.16
74346;BME280;62776;50.518;6.732;2023-04-15T07:53:29;95843.13;;;9.00;70.39
74346;BME280;62776;50.518;6.732;2023-04-15T07:56:17;95851.69;;;9.04;70.39
74346;BME280;62776;50.518;6.732;2023-04-15T07:59:03;95858.50;;;9.11;75.12
74346;BME280;62776;50.518;6.732;2023-04-15T08:01:53;95857.50;;;9.19;75.13
74346;BME280;62776;50.518;6.732;2023-04-15T08:04:40;95861.53;;;9.34;72.65
74346;BME280;62776;50.518;6.732;2023-04-15T08:07:32;95865.72;;;9.42;72.50
74346;BME280;62776;50.518;6.732;2023-04-15T08:10:24;95873.34;;;9.53;69.43
74346;BME280;62776;50.518;6.732;2023-04-15T08:13:18;95870.63;;;9.61;68.62
74346;BME280;62776;50.518;6.732;2023-04-15T08:16:21;95879.19;;;9.66;68.59
74346;BME280;62776;50.518;6.732;2023-04-15T08:19:07;95878.75;;;9.88;69.91
74346;BME280;62776;50.518;6.732;2023-04-15T08:21:54;95883.53;;;10.09;70.29
74346;BME280;62776;50.518;6.732;2023-04-15T08:24:42;95891.25;;;10.16;68.00
74346;BME280;62776;50.518;6.732;2023-04-15T08:27:29;95890.16;;;10.27;67.29
74346;BME280;62776;50.518;6.732;2023-04-15T08:30:16;95887.94;;;10.52;71.03
74346;BME280;62776;50.518;6.732;2023-04-15T08:33:04;95886.78;;;10.63;69.75
74346;BME280;62776;50.518;6.732;2023-04-15T08:35:50;95894.69;;;10.59;67.82
74346;BME280;62776;50.518;6.732;2023-04-15T08:38:39;95898.22;;;10.56;70.28
74346;BME280;62776;50.518;6.732;2023-04-15T08:41:26;95904.50;;;10.46;70.16
74346;BME280;62776;50.518;6.732;2023-04-15T08:44:24;95901.69;;;10.55;73.40
74346;BME280;62776;50.518;6.732;2023-04-15T08:47:16;95902.66;;;10.50;72.07
74346;BME280;62776;50.518;6.732;2023-04-15T08:50:10;95904.34;;;10.54;73.34
74346;BME280;62776;50.518;6.732;2023-04-15T08:52:58;95915.50;;;10.59;76.38
74346;BME280;62776;50.518;6.732;2023-04-15T08:55:51;95912.75;;;10.65;75.43
74346;BME280;62776;50.518;6.732;2023-04-15T08:58:53;95909.25;;;10.66;74.50
74346;BME280;62776;50.518;6.732;2023-04-15T09:01:40;95921.44;;;10.64;74.66
74346;BME280;62776;50.518;6.732;2023-04-15T09:04:28;95915.25;;;10.70;74.25
74346;BME280;62776;50.518;6.732;2023-04-15T09:07:14;95919.53;;;10.72;74.61
74346;BME280;62776;50.518;6.732;2023-04-15T09:10:04;95921.22;;;10.75;76.31
74346;BME280;62776;50.518;6.732;2023-04-15T09:12:51;95932.22;;;10.87;76.08
74346;BME280;62776;50.518;6.732;2023-04-15T09:15:40;95931.19;;;10.94;74.46
74346;BME280;62776;50.518;6.732;2023-04-15T09:18:35;95932.69;;;11.04;76.34
74346;BME280;62776;50.518;6.732;2023-04-15T09:21:23;95939.47;;;11.11;73.81
74346;BME280;62776;50.518;6.732;2023-04-15T09:24:11;95937.50;;;11.21;72.13
74346;BME280;62776;50.518;6.732;2023-04-15T09:26:58;95940.84;;;11.27;70.54
74346;BME280;62776;50.518;6.732;2023-04-15T09:29:54;95947.78;;;11.29;71.49
74346;BME280;62776;50.518;6.732;2023-04-15T09:32:54;95947.09;;;11.20;70.82
74346;BME280;62776;50.518;6.732;2023-04-15T09:36:02;95946.97;;;11.25;69.87
74346;BME280;62776;50.518;6.732;2023-04-15T09:39:00;95955.66;;;11.24;70.05
74346;BME280;62776;50.518;6.732;2023-04-15T09:42:06;95949.75;;;11.17;69.15
74346;BME280;62776;50.518;6.732;2023-04-15T09:45:10;95966.13;;;11.22;71.32
74346;BME280;62776;50.518;6.732;2023-04-15T09:48:23;95972.25;;;11.18;70.45
74346;BME280;62776;50.518;6.732;2023-04-15T09:51:12;95965.06;;;11.30;70.87
74346;BME280;62776;50.518;6.732;2023-04-15T09:53:59;95981.66;;;11.24;70.34
74346;BME280;62776;50.518;6.732;2023-04-15T09:56:48;95981.72;;;11.22;69.82
74346;BME280;62776;50.518;6.732;2023-04-15T09:59:37;96000.75;;;11.24;70.84
74346;BME280;62776;50.518;6.732;2023-04-15T10:02:28;95994.41;;;10.98;71.16
74346;BME280;62776;50.518;6.732;2023-04-15T10:05:17;95988.63;;;10.84;72.75
74346;BME280;62776;50.518;6.732;2023-04-15T10:08:04;96006.00;;;10.82;75.01
74346;BME280;62776;50.518;6.732;2023-04-15T10:10:53;96000.03;;;10.77;75.89
74346;BME280;62776;50.518;6.732;2023-04-15T10:13:46;96002.34;;;10.90;77.75
74346;BME280;62776;50.518;6.732;2023-04-15T10:16:39;96002.25;;;10.93;76.75
74346;BME280;62776;50.518;6.732;2023-04-15T10:19:32;96002.41;;;10.87;76.60
74346;BME280;62776;50.518;6.732;2023-04-15T10:22:22;95996.06;;;11.00;80.00
74346;BME280;62776;50.518;6.732;2023-04-15T10:25:18;96004.56;;;11.08;79.58
74346;BME280;62776;50.518;6.732;2023-04-15T10:28:17;95999.13;;;11.19;81.09
74346;BME280;62776;50.518;6.732;2023-04-15T10:31:10;95997.19;;;11.29;78.77
74346;BME280;62776;50.518;6.732;2023-04-15T10:34:04;95995.59;;;11.23;76.60
74346;BME280;62776;50.518;6.732;2023-04-15T10:36:54;95997.13;;;11.32;76.38
74346;BME280;62776;50.518;6.732;2023-04-15T10:39:47;96000.25;;;11.47;73.65
74346;BME280;62776;50.518;6.732;2023-04-15T10:42:41;95993.63;;;11.72;72.12
74346;BME280;62776;50.518;6.732;2023-04-15T10:45:36;96004.44;;;11.91;67.01
74346;BME280;62776;50.518;6.732;2023-04-15T10:48:26;95998.91;;;12.03;57.28
74346;BME280;62776;50.518;6.732;2023-04-15T10:51:30;96008.72;;;11.92;50.23
74346;BME280;62776;50.518;6.732;2023-04-15T10:54:31;96013.47;;;11.76;52.86
74346;BME280;62776;50.518;6.732;2023-04-15T10:57:26;96002.53;;;11.61;54.73
74346;BME280;62776;50.518;6.732;2023-04-15T11:00:26;96011.03;;;11.69;55.89
74346;BME280;62776;50.518;6.732;2023-04-15T11:03:16;96009.03;;;11.80;56.42
74346;BME280;62776;50.518;6.732;2023-04-15T11:06:03;96015.31;;;12.08;57.20
74346;BME280;62776;50.518;6.732;2023-04-15T11:08:59;96017.84;;;12.11;56.63
74346;BME280;62776;50.518;6.732;2023-04-15T11:12:10;96021.88;;;11.88;57.26
74346;BME280;62776;50.518;6.732;2023-04-15T11:14:57;96029.41;;;12.00;60.56
74346;BME280;62776;50.518;6.732;2023-04-15T11:17:43;96013.91;;;11.94;59.46
74346;BME280;62776;50.518;6.732;2023-04-15T11:20:31;96022.44;;;12.00;62.10
74346;BME280;62776;50.518;6.732;2023-04-15T11:23:26;96024.75;;;12.12;61.87
74346;BME280;62776;50.518;6.732;2023-04-15T11:26:13;96034.13;;;12.19;61.25
74346;BME280;62776;50.518;6.732;2023-04-15T11:29:01;96025.41;;;12.20;60.03
74346;BME280;62776;50.518;6.732;2023-04-15T11:31:47;96035.03;;;12.17;60.36
74346;BME280;62776;50.518;6.732;2023-04-15T11:34:34;96022.28;;;12.06;58.45
74346;BME280;62776;50.518;6.732;2023-04-15T11:37:28;96047.78;;;11.92;61.69
74346;BME280;62776;50.518;6.732;2023-04-15T11:40:22;96045.19;;;11.92;65.13
74346;BME280;62776;50.518;6.732;2023-04-15T11:43:15;96039.84;;;11.98;65.93
74346;BME280;62776;50.518;6.732;2023-04-15T11:46:09;96049.00;;;12.14;64.95
74346;BME280;62776;50.518;6.732;2023-04-15T11:48:55;96051.00;;;12.03;61.66
74346;BME280;62776;50.518;6.732;2023-04-15T11:51:42;96049.13;;;12.10;64.29
74346;BME280;62776;50.518;6.732;2023-04-15T11:54:35;96055.38;;;12.38;66.41
74346;BME280;62776;50.518;6.732;2023-04-15T11:57:30;96066.31;;;12.52;63.30
74346;BME280;62776;50.518;6.732;2023-04-15T12:00:24;96068.28;;;12.42;63.41
74346;BME280;62776;50.518;6.732;2023-04-15T12:03:21;96082.03;;;12.48;62.05
74346;BME280;62776;50.518;6.732;2023-04-15T12:09:09;96068.03;;;12.52;62.84
74346;BME280;62776;50.518;6.732;2023-04-15T12:11:58;96091.41;;;12.21;65.46
74346;BME280;62776;50.518;6.732;2023-04-15T12:14:51;96083.44;;;12.27;64.45
74346;BME280;62776;50.518;6.732;2023-04-15T12:17:39;96088.47;;;12.34;64.38
74346;BME280;62776;50.518;6.732;2023-04-15T12:20:27;96086.84;;;12.30;66.51
74346;BME280;62776;50.518;6.732;2023-04-15T12:23:21;96101.41;;;12.37;65.62
74346;BME280;62776;50.518;6.732;2023-04-15T12:26:07;96090.78;;;12.47;64.69
74346;BME280;62776;50.518;6.732;2023-04-15T12:29:09;96099.06;;;12.27;65.29
74346;BME280;62776;50.518;6.732;2023-04-15T12:32:10;96103.81;;;12.11;67.08
74346;BME280;62776;50.518;6.732;2023-04-15T12:34:56;96119.50;;;12.08;70.04
74346;BME280;62776;50.518;6.732;2023-04-15T12:37:43;96118.91;;;11.97;68.56
74346;BME280;62776;50.518;6.732;2023-04-15T12:40:30;96114.75;;;11.87;69.00
74346;BME280;62776;50.518;6.732;2023-04-15T12:43:17;96138.06;;;11.93;69.61
74346;BME280;62776;50.518;6.732;2023-04-15T12:46:04;96125.97;;;11.91;69.92
74346;BME280;62776;50.518;6.732;2023-04-15T12:48:53;96134.03;;;11.80;70.19
74346;BME280;62776;50.518;6.732;2023-04-15T12:51:41;96139.41;;;11.72;72.41
74346;BME280;62776;50.518;6.732;2023-04-15T12:54:30;96149.81;;;11.72;71.90
74346;BME280;62776;50.518;6.732;2023-04-15T12:57:26;96148.78;;;11.81;73.13
74346;BME280;62776;50.518;6.732;2023-04-15T13:00:15;96164.47;;;11.78;72.31
74346;BME280;62776;50.518;6.732;2023-04-15T13:03:01;96157.59;;;11.74;73.06
74346;BME280;62776;50.518;6.732;2023-04-15T13:05:48;96155.97;;;11.67;74.51
74346;BME280;62776;50.518;6.732;2023-04-15T13:08:34;96158.59;;;11.65;75.18
74346;BME280;62776;50.518;6.732;2023-04-15T13:11:21;96155.06;;;11.68;74.07
74346;BME280;62776;50.518;6.732;2023-04-15T13:14:09;96167.97;;;11.75;77.59
74346;BME280;62776;50.518;6.732;2023-04-15T13:16:56;96170.53;;;11.77;75.08
74346;BME280;62776;50.518;6.732;2023-04-15T13:19:42;96174.44;;;11.55;75.43
74346;BME280;62776;50.518;6.732;2023-04-15T13:22:30;96178.84;;;11.51;76.12
74346;BME280;62776;50.518;6.732;2023-04-15T13:25:16;96177.31;;;11.41;78.51
74346;BME280;62776;50.518;6.732;2023-04-15T13:28:02;96182.63;;;11.37;78.24
74346;BME280;62776;50.518;6.732;2023-04-15T13:30:53;96188.06;;;11.24;79.51
74346;BME280;62776;50.518;6.732;2023-04-15T13:33:42;96189.13;;;11.14;80.14
74346;BME280;62776;50.518;6.732;2023-04-15T13:36:28;96194.31;;;11.14;79.42
74346;BME280;62776;50.518;6.732;2023-04-15T13:39:18;96201.22;;;11.15;79.95
74346;BME280;62776;50.518;6.732;2023-04-15T13:42:04;96201.22;;;11.15;81.73
74346;BME280;62776;50.518;6.732;2023-04-15T13:44:57;96211.84;;;11.03;82.45
74346;BME280;62776;50.518;6.732;2023-04-15T13:47:45;96211.91;;;10.99;82.91
74346;BME280;62776;50.518;6.732;2023-04-15T13:50:32;96212.00;;;10.94;85.59
74346;BME280;62776;50.518;6.732;2023-04-15T13:53:18;96218.22;;;10.86;85.54
74346;BME280;62776;50.518;6.732;2023-04-15T13:56:08;96216.84;;;10.65;86.76
74346;BME280;62776;50.518;6.732;2023-04-15T13:58:54;96220.28;;;10.67;87.64
74346;BME280;62776;50.518;6.732;2023-04-15T14:01:45;96224.88;;;10.50;88.86
74346;BME280;62776;50.518;6.732;2023-04-15T14:04:37;96227.63;;;10.39;90.54
74346;BME280;62776;50.518;6.732;2023-04-15T14:07:28;96229.34;;;10.40;92.15
74346;BME280;62776;50.518;6.732;2023-04-15T14:10:18;96224.06;;;10.46;93.02
74346;BME280;62776;50.518;6.732;2023-04-15T14:13:04;96228.41;;;10.44;92.75
74346;BME280;62776;50.518;6.732;2023-04-15T14:15:52;96243.13;;;10.45;92.05
74346;BME280;62776;50.518;6.732;2023-04-15T14:18:39;96248.53;;;10.32;92.31
74346;BME280;62776;50.518;6.732;2023-04-15T14:21:28;96245.09;;;10.28;93.98
74346;BME280;62776;50.518;6.732;2023-04-15T14:24:20;96252.19;;;10.19;94.42
74346;BME280;62776;50.518;6.732;2023-04-15T14:27:07;96260.06;;;10.09;95.66
74346;BME280;62776;50.518;6.732;2023-04-15T14:29:54;96266.19;;;10.04;96.97
74346;BME280;62776;50.518;6.732;2023-04-15T14:32:40;96270.56;;;10.00;99.19
74346;BME280;62776;50.518;6.732;2023-04-15T14:35:27;96274.06;;;9.99;100.00
74346;BME280;62776;50.518;6.732;2023-04-15T14:38:13;96280.03;;;10.03;100.00
74346;BME280;62776;50.518;6.732;2023-04-15T14:41:00;96270.53;;;10.03;100.00
74346;BME280;62776;50.518;6.732;2023-04-15T14:43:46;96277.47;;;10.01;100.00
74346;BME280;62776;50.518;6.732;2023-04-15T14:46:33;96283.53;;;10.02;100.00
74346;BME280;62776;50.518;6.732;2023-04-15T14:49:30;96291.34;;;9.97;100.00
74346;BME280;62776;50.518;6.732;2023-04-15T14:52:17;96290.66;;;9.85;98.42
74346;BME280;62776;50.518;6.732;2023-04-15T14:55:10;96293.34;;;9.77;99.35
74346;BME280;62776;50.518;6.732;2023-04-15T14:57:57;96298.41;;;9.86;100.00
74346;BME280;62776;50.518;6.732;2023-04-15T15:00:52;96305.34;;;9.87;100.00
74346;BME280;62776;50.518;6.732;2023-04-15T15:03:41;96299.31;;;9.84;100.00
74346;BME280;62776;50.518;6.732;2023-04-15T15:06:29;96303.63;;;9.83;100.00
74346;BME280;62776;50.518;6.732;2023-04-15T15:09:19;96308.94;;;9.77;100.00
74346;BME280;62776;50.518;6.732;2023-04-15T15:12:08;96315.03;;;9.72;100.00
74346;BME280;62776;50.518;6.732;2023-04-15T15:15:00;96314.22;;;9.68;100.00
74346;BME280;62776;50.518;6.732;2023-04-15T15:17:55;96315.97;;;9.65;100.00
74346;BME280;62776;50.518;6.732;2023-04-15T15:20:46;96316.00;;;9.63;100.00
74346;BME280;62776;50.518;6.732;2023-04-15T15:23:44;96320.38;;;9.57;100.00
74346;BME280;62776;50.518;6.732;2023-04-15T15:26:33;96318.63;;;9.60;100.00
74346;BME280;62776;50.518;6.732;2023-04-15T15:29:19;96327.31;;;9.55;100.00
74346;BME280;62776;50.518;6.732;2023-04-15T15:32:19;96328.16;;;9.58;100.00
74346;BME280;62776;50.518;6.732;2023-04-15T15:35:08;96328.19;;;9.55;100.00
74346;BME280;62776;50.518;6.732;2023-04-15T15:37:56;96334.19;;;9.60;100.00